Startpagina
METAR-TAF:

METAR-TAF

Vliegvelden :

Malabo, Equatoriaal-Guinea

Luchthaven Malabo

breedte: 03-45-18N, lengte: 08-42-31E, hoogte: 23 m

Actueel weer

Dit bericht is 3 uur en het 30 minuten geleden gemaakt, om 01:00 UTC
Wind 4 kt uit het zuidwesten
Temperatuur 25°C
Vochtigheid 89%
Druk 1011 hPa
Zicht: 6000 m
Weinig wolken op 1000 ft

METAR: FGSL 140100Z 22004KT 6000 FEW010 25/23 Q1011 NOSIG

Tijdstip: 05:30 (04:30 UTC)

Verwachting

Dit bericht is 11 uur en het 30 minuten geleden gemaakt, om 17:00 UTC
Verwachting geldig van 13 om 18 UTC tot 14 om 24 UTC
Wind 6 kt uit het westzuidwesten
Zicht: 6000 m
Weinig wolken op 1200 ft
Tijdelijke
van 14 om 02 UTC tot 14 om 09 UTC
Zicht: 3500 m
nevel
Kans 30%
van 14 om 10 UTC tot 14 om 18 UTC
Zicht: 4500 m
Heiigheid

TAF: FGSL 131700Z 1318/1424 24006KT 6000 FEW012 TEMPO 1402/1409 3500 BR PROB30 1410/1418 4500 HZ

Waarnemingen en weersverwachtingen van meer dan 4000 vliegvelden (METAR en TAF).

De beschikbare stations zijn de gele en rode punten op de kaart.

Ga met uw muis naar het station om de naam te zien.

Klik dan om waarnemingen en weersverwachtingen te zien.

kaart wijzigen: klik op de groene knoppen met een zwart kruis om in te zoomen, op de groene knop met een streepje om uit te zoomen of op de groene pijlen voor aangrenzende kaarten.


METAR-TAF: